sensor_id;sensor_type;location;lat;lon;timestamp;P1;durP1;ratioP1;P2;durP2;ratioP2
43146;SDS011;28752;48.266;7.402;2023-11-18T00:01:45;12.87;;;5.50;;
43146;SDS011;28752;48.266;7.402;2023-11-18T00:04:11;11.97;;;5.57;;
43146;SDS011;28752;48.266;7.402;2023-11-18T00:06:43;8.77;;;5.15;;
43146;SDS011;28752;48.266;7.402;2023-11-18T00:09:12;8.88;;;4.93;;
43146;SDS011;28752;48.266;7.402;2023-11-18T00:11:38;9.02;;;5.20;;
43146;SDS011;28752;48.266;7.402;2023-11-18T00:14:04;9.32;;;4.90;;
43146;SDS011;28752;48.266;7.402;2023-11-18T00:16:30;7.23;;;4.20;;
43146;SDS011;28752;48.266;7.402;2023-11-18T00:18:57;8.67;;;4.87;;
43146;SDS011;28752;48.266;7.402;2023-11-18T00:21:26;12.13;;;4.95;;
43146;SDS011;28752;48.266;7.402;2023-11-18T00:23:52;7.25;;;4.55;;
43146;SDS011;28752;48.266;7.402;2023-11-18T00:26:18;7.40;;;4.15;;
43146;SDS011;28752;48.266;7.402;2023-11-18T00:28:43;10.37;;;4.63;;
43146;SDS011;28752;48.266;7.402;2023-11-18T00:31:09;8.83;;;4.50;;
43146;SDS011;28752;48.266;7.402;2023-11-18T00:33:34;9.90;;;4.90;;
43146;SDS011;28752;48.266;7.402;2023-11-18T00:35:59;7.80;;;4.60;;
43146;SDS011;28752;48.266;7.402;2023-11-18T00:38:25;8.97;;;5.37;;
43146;SDS011;28752;48.266;7.402;2023-11-18T00:40:51;8.70;;;5.07;;
43146;SDS011;28752;48.266;7.402;2023-11-18T00:43:16;7.47;;;4.57;;
43146;SDS011;28752;48.266;7.402;2023-11-18T00:45:42;7.57;;;3.90;;
43146;SDS011;28752;48.266;7.402;2023-11-18T00:52:59;6.87;;;3.80;;
43146;SDS011;28752;48.266;7.402;2023-11-18T00:55:24;7.47;;;4.07;;
43146;SDS011;28752;48.266;7.402;2023-11-18T00:57:49;7.83;;;4.40;;
43146;SDS011;28752;48.266;7.402;2023-11-18T01:00:15;6.17;;;3.37;;
43146;SDS011;28752;48.266;7.402;2023-11-18T01:02:51;7.80;;;3.88;;
43146;SDS011;28752;48.266;7.402;2023-11-18T01:05:18;7.05;;;3.50;;
43146;SDS011;28752;48.266;7.402;2023-11-18T01:07:44;8.00;;;3.65;;
43146;SDS011;28752;48.266;7.402;2023-11-18T01:10:09;8.37;;;4.03;;
43146;SDS011;28752;48.266;7.402;2023-11-18T01:12:35;7.72;;;3.65;;
43146;SDS011;28752;48.266;7.402;2023-11-18T01:15:01;6.75;;;3.60;;
43146;SDS011;28752;48.266;7.402;2023-11-18T01:17:28;8.18;;;3.90;;
43146;SDS011;28752;48.266;7.402;2023-11-18T01:19:54;8.10;;;3.60;;
43146;SDS011;28752;48.266;7.402;2023-11-18T01:22:20;6.45;;;3.90;;
43146;SDS011;28752;48.266;7.402;2023-11-18T01:24:46;9.18;;;4.40;;
43146;SDS011;28752;48.266;7.402;2023-11-18T01:27:11;7.17;;;4.20;;
43146;SDS011;28752;48.266;7.402;2023-11-18T01:29:36;6.53;;;4.00;;
43146;SDS011;28752;48.266;7.402;2023-11-18T01:32:02;8.37;;;3.53;;
43146;SDS011;28752;48.266;7.402;2023-11-18T01:34:37;9.20;;;4.57;;
43146;SDS011;28752;48.266;7.402;2023-11-18T01:37:04;7.25;;;4.00;;
43146;SDS011;28752;48.266;7.402;2023-11-18T01:39:36;7.68;;;4.03;;
43146;SDS011;28752;48.266;7.402;2023-11-18T01:42:02;5.88;;;3.83;;
43146;SDS011;28752;48.266;7.402;2023-11-18T01:49:19;7.32;;;3.97;;
43146;SDS011;28752;48.266;7.402;2023-11-18T01:51:46;7.47;;;4.00;;
43146;SDS011;28752;48.266;7.402;2023-11-18T01:54:11;10.25;;;4.82;;
43146;SDS011;28752;48.266;7.402;2023-11-18T01:56:41;8.63;;;5.35;;
43146;SDS011;28752;48.266;7.402;2023-11-18T01:59:09;9.32;;;5.05;;
43146;SDS011;28752;48.266;7.402;2023-11-18T02:04:01;8.45;;;4.88;;
43146;SDS011;28752;48.266;7.402;2023-11-18T02:06:26;7.40;;;5.07;;
43146;SDS011;28752;48.266;7.402;2023-11-18T02:08:52;7.97;;;5.10;;
43146;SDS011;28752;48.266;7.402;2023-11-18T02:11:31;7.93;;;5.20;;
43146;SDS011;28752;48.266;7.402;2023-11-18T02:14:06;10.63;;;5.10;;
43146;SDS011;28752;48.266;7.402;2023-11-18T02:16:35;7.53;;;5.35;;
43146;SDS011;28752;48.266;7.402;2023-11-18T02:19:03;8.13;;;4.97;;
43146;SDS011;28752;48.266;7.402;2023-11-18T02:21:34;6.93;;;4.90;;
43146;SDS011;28752;48.266;7.402;2023-11-18T02:24:02;8.50;;;5.20;;
43146;SDS011;28752;48.266;7.402;2023-11-18T02:26:29;9.77;;;5.93;;
43146;SDS011;28752;48.266;7.402;2023-11-18T02:28:55;9.45;;;5.60;;
43146;SDS011;28752;48.266;7.402;2023-11-18T02:31:22;9.03;;;5.57;;
43146;SDS011;28752;48.266;7.402;2023-11-18T02:36:32;8.80;;;4.78;;
43146;SDS011;28752;48.266;7.402;2023-11-18T02:39:16;9.07;;;5.18;;
43146;SDS011;28752;48.266;7.402;2023-11-18T02:41:54;8.60;;;5.28;;
43146;SDS011;28752;48.266;7.402;2023-11-18T02:44:24;9.25;;;5.13;;
43146;SDS011;28752;48.266;7.402;2023-11-18T02:46:50;16.60;;;5.47;;
43146;SDS011;28752;48.266;7.402;2023-11-18T02:49:16;8.73;;;5.47;;
43146;SDS011;28752;48.266;7.402;2023-11-18T02:51:42;9.50;;;5.93;;
43146;SDS011;28752;48.266;7.402;2023-11-18T02:54:10;7.65;;;4.47;;
43146;SDS011;28752;48.266;7.402;2023-11-18T02:56:36;9.20;;;4.97;;
43146;SDS011;28752;48.266;7.402;2023-11-18T03:01:30;8.20;;;4.72;;
43146;SDS011;28752;48.266;7.402;2023-11-18T03:03:56;9.30;;;5.50;;
43146;SDS011;28752;48.266;7.402;2023-11-18T03:06:21;8.00;;;5.27;;
43146;SDS011;28752;48.266;7.402;2023-11-18T03:08:46;9.53;;;5.43;;
43146;SDS011;28752;48.266;7.402;2023-11-18T03:11:12;11.60;;;7.10;;
43146;SDS011;28752;48.266;7.402;2023-11-18T03:13:37;10.53;;;6.43;;
43146;SDS011;28752;48.266;7.402;2023-11-18T03:16:06;10.57;;;5.90;;
43146;SDS011;28752;48.266;7.402;2023-11-18T03:18:35;13.15;;;6.72;;
43146;SDS011;28752;48.266;7.402;2023-11-18T03:21:03;11.48;;;5.70;;
43146;SDS011;28752;48.266;7.402;2023-11-18T03:23:31;9.50;;;5.53;;
43146;SDS011;28752;48.266;7.402;2023-11-18T03:25:57;8.73;;;6.03;;
43146;SDS011;28752;48.266;7.402;2023-11-18T03:28:23;9.43;;;6.20;;
43146;SDS011;28752;48.266;7.402;2023-11-18T03:30:48;10.43;;;6.97;;
43146;SDS011;28752;48.266;7.402;2023-11-18T03:33:14;10.83;;;6.03;;
43146;SDS011;28752;48.266;7.402;2023-11-18T03:35:39;11.93;;;6.17;;
43146;SDS011;28752;48.266;7.402;2023-11-18T03:38:05;9.40;;;5.80;;
43146;SDS011;28752;48.266;7.402;2023-11-18T03:40:30;8.17;;;5.20;;
43146;SDS011;28752;48.266;7.402;2023-11-18T03:42:55;8.40;;;5.20;;
43146;SDS011;28752;48.266;7.402;2023-11-18T03:45:22;8.65;;;4.75;;
43146;SDS011;28752;48.266;7.402;2023-11-18T03:47:48;7.90;;;3.97;;
43146;SDS011;28752;48.266;7.402;2023-11-18T03:50:15;9.52;;;4.60;;
43146;SDS011;28752;48.266;7.402;2023-11-18T03:52:41;9.13;;;5.38;;
43146;SDS011;28752;48.266;7.402;2023-11-18T03:55:06;10.03;;;5.00;;
43146;SDS011;28752;48.266;7.402;2023-11-18T03:57:33;8.77;;;4.40;;
43146;SDS011;28752;48.266;7.402;2023-11-18T03:59:59;7.75;;;4.47;;
43146;SDS011;28752;48.266;7.402;2023-11-18T04:02:24;8.20;;;4.85;;
43146;SDS011;28752;48.266;7.402;2023-11-18T04:04:50;7.60;;;4.20;;
43146;SDS011;28752;48.266;7.402;2023-11-18T04:07:15;7.83;;;4.67;;
43146;SDS011;28752;48.266;7.402;2023-11-18T04:09:41;7.73;;;4.53;;
43146;SDS011;28752;48.266;7.402;2023-11-18T04:12:08;9.18;;;4.68;;
43146;SDS011;28752;48.266;7.402;2023-11-18T04:14:34;7.55;;;4.80;;
43146;SDS011;28752;48.266;7.402;2023-11-18T04:17:00;5.75;;;4.18;;
43146;SDS011;28752;48.266;7.402;2023-11-18T04:19:25;8.43;;;4.63;;
43146;SDS011;28752;48.266;7.402;2023-11-18T04:21:51;7.67;;;3.73;;
43146;SDS011;28752;48.266;7.402;2023-11-18T04:24:16;6.73;;;3.37;;
43146;SDS011;28752;48.266;7.402;2023-11-18T04:26:41;7.07;;;4.00;;
43146;SDS011;28752;48.266;7.402;2023-11-18T04:29:07;8.73;;;4.10;;
43146;SDS011;28752;48.266;7.402;2023-11-18T04:31:33;6.43;;;4.27;;
43146;SDS011;28752;48.266;7.402;2023-11-18T04:38:51;8.30;;;4.35;;
43146;SDS011;28752;48.266;7.402;2023-11-18T04:41:16;6.97;;;4.60;;
43146;SDS011;28752;48.266;7.402;2023-11-18T04:43:42;7.10;;;4.57;;
43146;SDS011;28752;48.266;7.402;2023-11-18T04:46:07;8.90;;;5.00;;
43146;SDS011;28752;48.266;7.402;2023-11-18T04:48:33;8.20;;;5.47;;
43146;SDS011;28752;48.266;7.402;2023-11-18T04:50:59;9.43;;;6.00;;
43146;SDS011;28752;48.266;7.402;2023-11-18T04:53:25;8.77;;;6.03;;
43146;SDS011;28752;48.266;7.402;2023-11-18T04:55:51;8.90;;;5.70;;
43146;SDS011;28752;48.266;7.402;2023-11-18T04:58:16;8.93;;;5.83;;
43146;SDS011;28752;48.266;7.402;2023-11-18T05:00:41;8.67;;;5.63;;
43146;SDS011;28752;48.266;7.402;2023-11-18T05:03:08;10.32;;;5.45;;
43146;SDS011;28752;48.266;7.402;2023-11-18T05:05:38;9.00;;;5.00;;
43146;SDS011;28752;48.266;7.402;2023-11-18T05:08:07;10.50;;;5.13;;
43146;SDS011;28752;48.266;7.402;2023-11-18T05:10:33;9.48;;;5.65;;
43146;SDS011;28752;48.266;7.402;2023-11-18T05:12:59;9.50;;;5.45;;
43146;SDS011;28752;48.266;7.402;2023-11-18T05:15:26;10.45;;;5.20;;
43146;SDS011;28752;48.266;7.402;2023-11-18T05:17:52;9.85;;;5.80;;
43146;SDS011;28752;48.266;7.402;2023-11-18T05:20:18;10.38;;;5.78;;
43146;SDS011;28752;48.266;7.402;2023-11-18T05:22:44;8.55;;;5.32;;
43146;SDS011;28752;48.266;7.402;2023-11-18T05:25:09;8.60;;;4.93;;
43146;SDS011;28752;48.266;7.402;2023-11-18T05:27:35;10.07;;;4.65;;
43146;SDS011;28752;48.266;7.402;2023-11-18T05:30:00;9.43;;;4.70;;
43146;SDS011;28752;48.266;7.402;2023-11-18T05:32:27;9.07;;;4.78;;
43146;SDS011;28752;48.266;7.402;2023-11-18T05:34:53;8.80;;;4.70;;
43146;SDS011;28752;48.266;7.402;2023-11-18T05:37:20;10.02;;;5.25;;
43146;SDS011;28752;48.266;7.402;2023-11-18T05:42:14;8.65;;;4.70;;
43146;SDS011;28752;48.266;7.402;2023-11-18T05:47:07;8.45;;;4.47;;
43146;SDS011;28752;48.266;7.402;2023-11-18T05:49:33;10.05;;;5.10;;
43146;SDS011;28752;48.266;7.402;2023-11-18T05:51:59;8.90;;;4.85;;
43146;SDS011;28752;48.266;7.402;2023-11-18T05:54:25;9.82;;;4.75;;
43146;SDS011;28752;48.266;7.402;2023-11-18T05:56:50;8.87;;;5.00;;
43146;SDS011;28752;48.266;7.402;2023-11-18T05:59:16;8.90;;;5.10;;
43146;SDS011;28752;48.266;7.402;2023-11-18T06:01:41;9.57;;;5.03;;
43146;SDS011;28752;48.266;7.402;2023-11-18T06:04:07;9.53;;;5.50;;
43146;SDS011;28752;48.266;7.402;2023-11-18T06:06:35;8.30;;;5.10;;
43146;SDS011;28752;48.266;7.402;2023-11-18T06:09:02;10.05;;;5.90;;
43146;SDS011;28752;48.266;7.402;2023-11-18T06:11:33;9.07;;;5.10;;
43146;SDS011;28752;48.266;7.402;2023-11-18T06:18:52;19.60;;;12.18;;
43146;SDS011;28752;48.266;7.402;2023-11-18T06:21:19;24.80;;;15.98;;
43146;SDS011;28752;48.266;7.402;2023-11-18T06:23:49;21.83;;;14.02;;
43146;SDS011;28752;48.266;7.402;2023-11-18T06:26:15;21.08;;;12.90;;
43146;SDS011;28752;48.266;7.402;2023-11-18T06:28:42;19.77;;;11.38;;
43146;SDS011;28752;48.266;7.402;2023-11-18T06:31:08;17.45;;;10.48;;
43146;SDS011;28752;48.266;7.402;2023-11-18T06:33:40;14.68;;;9.70;;
43146;SDS011;28752;48.266;7.402;2023-11-18T06:38:45;12.23;;;7.75;;
43146;SDS011;28752;48.266;7.402;2023-11-18T06:41:12;11.73;;;8.10;;
43146;SDS011;28752;48.266;7.402;2023-11-18T06:43:38;11.25;;;6.78;;
43146;SDS011;28752;48.266;7.402;2023-11-18T06:46:19;10.55;;;7.10;;
43146;SDS011;28752;48.266;7.402;2023-11-18T06:48:46;12.45;;;7.15;;
43146;SDS011;28752;48.266;7.402;2023-11-18T06:51:15;13.07;;;7.43;;
43146;SDS011;28752;48.266;7.402;2023-11-18T06:53:41;11.82;;;7.80;;
43146;SDS011;28752;48.266;7.402;2023-11-18T06:56:08;11.10;;;7.95;;
43146;SDS011;28752;48.266;7.402;2023-11-18T06:58:36;12.70;;;8.60;;
43146;SDS011;28752;48.266;7.402;2023-11-18T07:01:02;14.00;;;8.32;;
43146;SDS011;28752;48.266;7.402;2023-11-18T07:03:30;14.07;;;8.63;;
43146;SDS011;28752;48.266;7.402;2023-11-18T07:05:56;14.30;;;8.75;;
43146;SDS011;28752;48.266;7.402;2023-11-18T07:08:22;13.20;;;8.70;;
43146;SDS011;28752;48.266;7.402;2023-11-18T07:10:47;14.33;;;8.97;;
43146;SDS011;28752;48.266;7.402;2023-11-18T07:13:13;18.45;;;11.70;;
43146;SDS011;28752;48.266;7.402;2023-11-18T07:15:39;18.70;;;12.07;;
43146;SDS011;28752;48.266;7.402;2023-11-18T07:18:04;15.50;;;10.13;;
43146;SDS011;28752;48.266;7.402;2023-11-18T07:20:29;15.97;;;11.10;;
43146;SDS011;28752;48.266;7.402;2023-11-18T07:22:55;17.53;;;13.77;;
43146;SDS011;28752;48.266;7.402;2023-11-18T07:25:20;13.10;;;10.17;;
43146;SDS011;28752;48.266;7.402;2023-11-18T07:27:46;12.15;;;8.20;;
43146;SDS011;28752;48.266;7.402;2023-11-18T07:30:11;50.37;;;27.60;;
43146;SDS011;28752;48.266;7.402;2023-11-18T07:32:37;41.67;;;26.63;;
43146;SDS011;28752;48.266;7.402;2023-11-18T07:35:05;22.75;;;14.38;;
43146;SDS011;28752;48.266;7.402;2023-11-18T07:37:33;18.90;;;10.85;;
43146;SDS011;28752;48.266;7.402;2023-11-18T07:39:59;16.87;;;9.53;;
43146;SDS011;28752;48.266;7.402;2023-11-18T07:47:16;19.20;;;11.00;;
43146;SDS011;28752;48.266;7.402;2023-11-18T07:49:42;40.00;;;25.13;;
43146;SDS011;28752;48.266;7.402;2023-11-18T07:52:07;21.10;;;14.67;;
43146;SDS011;28752;48.266;7.402;2023-11-18T07:54:32;26.17;;;17.47;;
43146;SDS011;28752;48.266;7.402;2023-11-18T07:56:58;20.42;;;14.77;;
43146;SDS011;28752;48.266;7.402;2023-11-18T07:59:23;20.23;;;13.37;;
43146;SDS011;28752;48.266;7.402;2023-11-18T08:01:49;19.20;;;14.30;;
43146;SDS011;28752;48.266;7.402;2023-11-18T08:04:15;27.70;;;24.35;;
43146;SDS011;28752;48.266;7.402;2023-11-18T08:06:42;23.52;;;15.88;;
43146;SDS011;28752;48.266;7.402;2023-11-18T08:09:10;23.73;;;15.32;;
43146;SDS011;28752;48.266;7.402;2023-11-18T08:11:38;24.65;;;15.80;;
43146;SDS011;28752;48.266;7.402;2023-11-18T08:14:07;21.30;;;15.90;;
43146;SDS011;28752;48.266;7.402;2023-11-18T08:16:33;20.02;;;13.38;;
43146;SDS011;28752;48.266;7.402;2023-11-18T08:18:58;16.00;;;10.25;;
43146;SDS011;28752;48.266;7.402;2023-11-18T08:21:24;17.10;;;10.47;;
43146;SDS011;28752;48.266;7.402;2023-11-18T08:23:49;15.80;;;10.33;;
43146;SDS011;28752;48.266;7.402;2023-11-18T08:26:15;17.20;;;9.83;;
43146;SDS011;28752;48.266;7.402;2023-11-18T08:28:40;19.83;;;13.13;;
43146;SDS011;28752;48.266;7.402;2023-11-18T08:31:08;26.08;;;17.30;;
43146;SDS011;28752;48.266;7.402;2023-11-18T08:33:34;24.67;;;17.27;;
43146;SDS011;28752;48.266;7.402;2023-11-18T08:35:59;26.97;;;17.30;;
43146;SDS011;28752;48.266;7.402;2023-11-18T08:38:26;25.05;;;18.55;;
43146;SDS011;28752;48.266;7.402;2023-11-18T08:45:44;25.33;;;15.20;;
43146;SDS011;28752;48.266;7.402;2023-11-18T08:48:09;25.90;;;16.33;;
43146;SDS011;28752;48.266;7.402;2023-11-18T08:50:36;26.08;;;16.42;;
43146;SDS011;28752;48.266;7.402;2023-11-18T08:53:04;29.48;;;18.83;;
43146;SDS011;28752;48.266;7.402;2023-11-18T08:55:31;31.05;;;19.42;;
43146;SDS011;28752;48.266;7.402;2023-11-18T09:00:44;25.20;;;17.23;;
43146;SDS011;28752;48.266;7.402;2023-11-18T09:03:12;18.45;;;12.57;;
43146;SDS011;28752;48.266;7.402;2023-11-18T09:05:52;14.60;;;9.50;;
43146;SDS011;28752;48.266;7.402;2023-11-18T09:08:22;9.85;;;6.63;;
43146;SDS011;28752;48.266;7.402;2023-11-18T09:10:57;9.35;;;5.63;;
43146;SDS011;28752;48.266;7.402;2023-11-18T09:13:23;9.20;;;5.28;;
43146;SDS011;28752;48.266;7.402;2023-11-18T09:15:59;9.45;;;5.47;;
43146;SDS011;28752;48.266;7.402;2023-11-18T09:18:25;8.52;;;5.82;;
43146;SDS011;28752;48.266;7.402;2023-11-18T09:20:52;9.55;;;5.47;;
43146;SDS011;28752;48.266;7.402;2023-11-18T09:23:22;10.02;;;5.25;;
43146;SDS011;28752;48.266;7.402;2023-11-18T09:25:51;7.93;;;5.35;;
43146;SDS011;28752;48.266;7.402;2023-11-18T09:28:18;15.80;;;8.75;;
43146;SDS011;28752;48.266;7.402;2023-11-18T09:30:49;19.65;;;9.05;;
43146;SDS011;28752;48.266;7.402;2023-11-18T09:33:19;12.63;;;6.35;;
43146;SDS011;28752;48.266;7.402;2023-11-18T09:35:57;11.32;;;6.60;;
43146;SDS011;28752;48.266;7.402;2023-11-18T09:38:30;12.07;;;7.22;;
43146;SDS011;28752;48.266;7.402;2023-11-18T09:40:59;9.68;;;6.57;;
43146;SDS011;28752;48.266;7.402;2023-11-18T09:43:28;9.75;;;7.07;;
43146;SDS011;28752;48.266;7.402;2023-11-18T09:45:57;10.93;;;6.47;;
43146;SDS011;28752;48.266;7.402;2023-11-18T09:48:28;14.05;;;9.75;;
43146;SDS011;28752;48.266;7.402;2023-11-18T09:50:54;15.95;;;11.73;;
43146;SDS011;28752;48.266;7.402;2023-11-18T09:53:27;12.88;;;8.63;;
43146;SDS011;28752;48.266;7.402;2023-11-18T09:56:06;8.48;;;4.75;;
43146;SDS011;28752;48.266;7.402;2023-11-18T09:58:44;6.93;;;4.68;;
43146;SDS011;28752;48.266;7.402;2023-11-18T10:01:14;9.85;;;4.82;;
43146;SDS011;28752;48.266;7.402;2023-11-18T10:03:43;8.57;;;4.75;;
43146;SDS011;28752;48.266;7.402;2023-11-18T10:06:11;6.63;;;4.30;;
43146;SDS011;28752;48.266;7.402;2023-11-18T10:08:39;8.25;;;4.13;;
43146;SDS011;28752;48.266;7.402;2023-11-18T10:11:05;9.00;;;4.75;;
43146;SDS011;28752;48.266;7.402;2023-11-18T10:13:34;7.75;;;4.18;;
43146;SDS011;28752;48.266;7.402;2023-11-18T10:16:05;8.25;;;4.85;;
43146;SDS011;28752;48.266;7.402;2023-11-18T10:18:34;10.90;;;4.72;;
43146;SDS011;28752;48.266;7.402;2023-11-18T10:21:01;7.43;;;4.07;;
43146;SDS011;28752;48.266;7.402;2023-11-18T10:23:29;8.10;;;4.50;;
43146;SDS011;28752;48.266;7.402;2023-11-18T10:25:58;10.30;;;9.00;;
43146;SDS011;28752;48.266;7.402;2023-11-18T10:28:26;11.85;;;10.55;;
43146;SDS011;28752;48.266;7.402;2023-11-18T10:30:53;9.88;;;6.93;;
43146;SDS011;28752;48.266;7.402;2023-11-18T10:33:23;6.35;;;3.75;;
43146;SDS011;28752;48.266;7.402;2023-11-18T10:35:55;8.50;;;3.70;;
43146;SDS011;28752;48.266;7.402;2023-11-18T10:38:21;10.00;;;4.47;;
43146;SDS011;28752;48.266;7.402;2023-11-18T10:40:52;8.70;;;4.50;;
43146;SDS011;28752;48.266;7.402;2023-11-18T10:43:20;7.72;;;4.45;;
43146;SDS011;28752;48.266;7.402;2023-11-18T10:45:49;8.98;;;4.30;;
43146;SDS011;28752;48.266;7.402;2023-11-18T10:48:15;8.73;;;4.55;;
43146;SDS011;28752;48.266;7.402;2023-11-18T10:50:42;7.72;;;4.30;;
43146;SDS011;28752;48.266;7.402;2023-11-18T10:53:11;8.73;;;4.60;;
43146;SDS011;28752;48.266;7.402;2023-11-18T10:55:38;7.25;;;4.47;;
43146;SDS011;28752;48.266;7.402;2023-11-18T10:58:05;7.15;;;4.00;;
43146;SDS011;28752;48.266;7.402;2023-11-18T11:00:48;8.70;;;4.65;;
43146;SDS011;28752;48.266;7.402;2023-11-18T11:03:15;10.13;;;5.38;;
43146;SDS011;28752;48.266;7.402;2023-11-18T11:05:41;7.88;;;4.40;;
43146;SDS011;28752;48.266;7.402;2023-11-18T11:08:08;8.05;;;5.25;;
43146;SDS011;28752;48.266;7.402;2023-11-18T11:10:37;8.70;;;4.50;;
43146;SDS011;28752;48.266;7.402;2023-11-18T11:13:07;7.72;;;4.68;;
43146;SDS011;28752;48.266;7.402;2023-11-18T11:18:04;10.55;;;4.97;;
43146;SDS011;28752;48.266;7.402;2023-11-18T11:20:41;9.35;;;5.10;;
43146;SDS011;28752;48.266;7.402;2023-11-18T11:31:45;9.50;;;4.93;;
43146;SDS011;28752;48.266;7.402;2023-11-18T11:34:17;8.60;;;5.10;;
43146;SDS011;28752;48.266;7.402;2023-11-18T11:36:48;9.35;;;4.97;;
43146;SDS011;28752;48.266;7.402;2023-11-18T11:39:16;9.55;;;4.88;;
43146;SDS011;28752;48.266;7.402;2023-11-18T11:41:50;9.23;;;5.57;;
43146;SDS011;28752;48.266;7.402;2023-11-18T11:44:17;9.50;;;5.50;;
43146;SDS011;28752;48.266;7.402;2023-11-18T11:46:45;8.93;;;4.65;;
43146;SDS011;28752;48.266;7.402;2023-11-18T11:49:17;9.30;;;4.55;;
43146;SDS011;28752;48.266;7.402;2023-11-18T11:52:07;8.80;;;4.28;;
43146;SDS011;28752;48.266;7.402;2023-11-18T11:54:42;7.85;;;4.10;;
43146;SDS011;28752;48.266;7.402;2023-11-18T11:57:14;8.65;;;3.88;;
43146;SDS011;28752;48.266;7.402;2023-11-18T12:02:14;8.43;;;4.22;;
43146;SDS011;28752;48.266;7.402;2023-11-18T12:04:46;6.72;;;4.05;;
43146;SDS011;28752;48.266;7.402;2023-11-18T12:07:17;8.90;;;3.78;;
43146;SDS011;28752;48.266;7.402;2023-11-18T12:09:46;8.02;;;3.58;;
43146;SDS011;28752;48.266;7.402;2023-11-18T12:12:18;6.43;;;3.20;;
43146;SDS011;28752;48.266;7.402;2023-11-18T12:14:49;6.72;;;3.38;;
43146;SDS011;28752;48.266;7.402;2023-11-18T12:17:21;6.75;;;3.30;;
43146;SDS011;28752;48.266;7.402;2023-11-18T12:19:47;6.93;;;3.03;;
43146;SDS011;28752;48.266;7.402;2023-11-18T12:22:15;6.55;;;3.50;;
43146;SDS011;28752;48.266;7.402;2023-11-18T12:27:41;9.05;;;3.72;;
43146;SDS011;28752;48.266;7.402;2023-11-18T12:32:58;8.25;;;3.67;;
43146;SDS011;28752;48.266;7.402;2023-11-18T12:35:41;7.68;;;4.22;;
43146;SDS011;28752;48.266;7.402;2023-11-18T12:44:15;7.88;;;4.45;;
43146;SDS011;28752;48.266;7.402;2023-11-18T12:47:02;8.18;;;4.72;;
43146;SDS011;28752;48.266;7.402;2023-11-18T12:49:46;9.80;;;4.80;;
43146;SDS011;28752;48.266;7.402;2023-11-18T12:52:19;8.45;;;4.40;;
43146;SDS011;28752;48.266;7.402;2023-11-18T12:54:46;8.48;;;4.97;;
43146;SDS011;28752;48.266;7.402;2023-11-18T12:57:37;9.25;;;5.47;;
43146;SDS011;28752;48.266;7.402;2023-11-18T13:00:04;10.98;;;5.72;;
43146;SDS011;28752;48.266;7.402;2023-11-18T13:02:36;8.82;;;5.25;;
43146;SDS011;28752;48.266;7.402;2023-11-18T13:05:07;8.82;;;4.65;;
43146;SDS011;28752;48.266;7.402;2023-11-18T13:07:36;7.53;;;4.50;;
43146;SDS011;28752;48.266;7.402;2023-11-18T13:10:02;7.47;;;4.20;;
43146;SDS011;28752;48.266;7.402;2023-11-18T13:12:29;6.40;;;4.25;;
43146;SDS011;28752;48.266;7.402;2023-11-18T13:14:55;9.90;;;5.00;;
43146;SDS011;28752;48.266;7.402;2023-11-18T13:17:22;7.22;;;4.22;;
43146;SDS011;28752;48.266;7.402;2023-11-18T13:23:34;7.18;;;4.80;;
43146;SDS011;28752;48.266;7.402;2023-11-18T13:30:21;6.00;;;3.53;;
43146;SDS011;28752;48.266;7.402;2023-11-18T13:33:37;7.63;;;4.15;;
43146;SDS011;28752;48.266;7.402;2023-11-18T13:36:06;6.97;;;3.78;;
43146;SDS011;28752;48.266;7.402;2023-11-18T13:38:35;6.75;;;4.07;;
43146;SDS011;28752;48.266;7.402;2023-11-18T13:41:01;7.00;;;4.05;;
43146;SDS011;28752;48.266;7.402;2023-11-18T13:43:28;8.65;;;4.88;;
43146;SDS011;28752;48.266;7.402;2023-11-18T13:46:07;8.20;;;4.70;;
43146;SDS011;28752;48.266;7.402;2023-11-18T13:48:37;11.75;;;4.38;;
43146;SDS011;28752;48.266;7.402;2023-11-18T13:51:05;7.63;;;4.07;;
43146;SDS011;28752;48.266;7.402;2023-11-18T13:53:37;10.95;;;4.90;;
43146;SDS011;28752;48.266;7.402;2023-11-18T13:56:03;8.57;;;4.13;;
43146;SDS011;28752;48.266;7.402;2023-11-18T14:03:21;6.73;;;3.93;;
43146;SDS011;28752;48.266;7.402;2023-11-18T14:05:50;6.65;;;3.72;;
43146;SDS011;28752;48.266;7.402;2023-11-18T14:08:19;9.85;;;4.38;;
43146;SDS011;28752;48.266;7.402;2023-11-18T14:10:45;8.10;;;4.13;;
43146;SDS011;28752;48.266;7.402;2023-11-18T14:13:10;7.45;;;4.25;;
43146;SDS011;28752;48.266;7.402;2023-11-18T14:15:40;9.18;;;4.68;;
43146;SDS011;28752;48.266;7.402;2023-11-18T14:18:07;9.80;;;4.68;;
43146;SDS011;28752;48.266;7.402;2023-11-18T14:20:34;7.88;;;4.25;;
43146;SDS011;28752;48.266;7.402;2023-11-18T14:23:00;9.07;;;3.97;;
43146;SDS011;28752;48.266;7.402;2023-11-18T14:25:28;6.40;;;3.42;;
43146;SDS011;28752;48.266;7.402;2023-11-18T14:27:54;6.50;;;3.50;;
43146;SDS011;28752;48.266;7.402;2023-11-18T14:30:19;5.70;;;3.30;;
43146;SDS011;28752;48.266;7.402;2023-11-18T14:32:45;8.77;;;3.93;;
43146;SDS011;28752;48.266;7.402;2023-11-18T14:35:11;9.73;;;3.50;;
43146;SDS011;28752;48.266;7.402;2023-11-18T14:37:42;6.85;;;3.53;;
43146;SDS011;28752;48.266;7.402;2023-11-18T14:40:10;7.60;;;3.80;;
43146;SDS011;28752;48.266;7.402;2023-11-18T14:42:43;9.05;;;4.00;;
43146;SDS011;28752;48.266;7.402;2023-11-18T14:45:10;7.38;;;4.13;;
43146;SDS011;28752;48.266;7.402;2023-11-18T14:47:38;9.07;;;4.25;;
43146;SDS011;28752;48.266;7.402;2023-11-18T14:50:09;7.40;;;4.35;;
43146;SDS011;28752;48.266;7.402;2023-11-18T14:52:45;7.47;;;4.50;;
43146;SDS011;28752;48.266;7.402;2023-11-18T14:55:13;7.72;;;4.47;;
43146;SDS011;28752;48.266;7.402;2023-11-18T14:57:42;8.50;;;4.57;;
43146;SDS011;28752;48.266;7.402;2023-11-18T15:00:09;7.35;;;4.63;;
43146;SDS011;28752;48.266;7.402;2023-11-18T15:02:44;7.72;;;4.72;;
43146;SDS011;28752;48.266;7.402;2023-11-18T15:05:11;6.85;;;4.10;;
43146;SDS011;28752;48.266;7.402;2023-11-18T15:07:36;7.20;;;4.35;;
43146;SDS011;28752;48.266;7.402;2023-11-18T15:10:03;7.50;;;4.25;;
43146;SDS011;28752;48.266;7.402;2023-11-18T15:12:28;9.02;;;4.53;;
43146;SDS011;28752;48.266;7.402;2023-11-18T15:14:55;9.48;;;4.60;;
43146;SDS011;28752;48.266;7.402;2023-11-18T15:17:24;9.20;;;5.07;;
43146;SDS011;28752;48.266;7.402;2023-11-18T15:19:50;7.50;;;4.90;;
43146;SDS011;28752;48.266;7.402;2023-11-18T15:22:16;8.97;;;5.30;;
43146;SDS011;28752;48.266;7.402;2023-11-18T15:24:41;12.07;;;5.80;;
43146;SDS011;28752;48.266;7.402;2023-11-18T15:27:06;11.90;;;5.80;;
43146;SDS011;28752;48.266;7.402;2023-11-18T15:29:32;10.75;;;5.18;;
43146;SDS011;28752;48.266;7.402;2023-11-18T15:32:03;10.13;;;5.65;;
43146;SDS011;28752;48.266;7.402;2023-11-18T15:34:29;8.27;;;4.97;;
43146;SDS011;28752;48.266;7.402;2023-11-18T15:36:55;11.05;;;5.57;;
43146;SDS011;28752;48.266;7.402;2023-11-18T15:39:20;9.90;;;6.17;;
43146;SDS011;28752;48.266;7.402;2023-11-18T15:41:45;12.00;;;5.60;;
43146;SDS011;28752;48.266;7.402;2023-11-18T15:44:11;10.13;;;4.77;;
43146;SDS011;28752;48.266;7.402;2023-11-18T15:46:38;8.63;;;5.47;;
43146;SDS011;28752;48.266;7.402;2023-11-18T15:49:03;9.67;;;5.50;;
43146;SDS011;28752;48.266;7.402;2023-11-18T15:51:28;8.60;;;5.17;;
43146;SDS011;28752;48.266;7.402;2023-11-18T15:53:55;9.70;;;5.35;;
43146;SDS011;28752;48.266;7.402;2023-11-18T15:56:21;9.48;;;5.50;;
